createdAt,value
2022-11-13T00:01:28.837Z,4.00
2022-11-13T00:04:16.711Z,5.00
2022-11-13T00:07:04.496Z,3.00
2022-11-13T00:09:52.166Z,3.25
2022-11-13T00:12:40.030Z,3.00
2022-11-13T00:15:28.083Z,3.00
2022-11-13T00:18:15.458Z,2.75
2022-11-13T00:21:10.749Z,3.50
2022-11-13T00:23:58.745Z,3.25
2022-11-13T00:26:46.569Z,3.25
2022-11-13T00:29:34.310Z,4.00
2022-11-13T00:32:22.668Z,4.00
2022-11-13T00:35:10.660Z,3.00
2022-11-13T00:37:59.530Z,2.75
2022-11-13T00:40:47.114Z,3.00
2022-11-13T00:43:35.387Z,3.00
2022-11-13T00:46:23.247Z,5.75
2022-11-13T00:49:11.273Z,4.00
2022-11-13T00:51:58.860Z,3.00
2022-11-13T00:54:47.102Z,4.50
2022-11-13T00:57:34.597Z,4.00
2022-11-13T01:00:22.521Z,3.00
2022-11-13T01:03:10.498Z,3.00
2022-11-13T01:05:58.537Z,4.00
2022-11-13T01:08:46.344Z,2.75
2022-11-13T01:11:34.642Z,4.50
2022-11-13T01:14:22.310Z,3.00
2022-11-13T01:17:09.800Z,5.00
2022-11-13T01:19:57.400Z,3.75
2022-11-13T01:22:45.204Z,4.00
2022-11-13T01:25:32.595Z,3.25
2022-11-13T01:28:20.184Z,5.00
2022-11-13T01:31:11.183Z,3.00
2022-11-13T01:33:59.142Z,3.50
2022-11-13T01:36:47.207Z,3.00
2022-11-13T01:39:35.001Z,3.75
2022-11-13T01:42:23.628Z,3.25
2022-11-13T01:45:29.532Z,3.25
2022-11-13T01:48:17.402Z,3.00
2022-11-13T01:51:10.686Z,3.50
2022-11-13T01:53:59.614Z,4.00
2022-11-13T01:56:47.307Z,3.75
2022-11-13T01:59:42.147Z,3.00
2022-11-13T02:02:30.551Z,3.50
2022-11-13T02:05:19.013Z,3.75
2022-11-13T02:08:06.703Z,3.00
2022-11-13T02:10:55.007Z,3.00
2022-11-13T02:13:43.035Z,3.25
2022-11-13T02:16:32.721Z,3.00
2022-11-13T02:19:40.420Z,2.25
2022-11-13T02:22:53.605Z,2.25
2022-11-13T02:25:42.694Z,3.00
2022-11-13T02:28:31.005Z,2.00
2022-11-13T02:31:19.332Z,3.75
2022-11-13T02:34:07.476Z,3.00
2022-11-13T02:36:55.871Z,4.50
2022-11-13T02:39:43.645Z,4.25
2022-11-13T02:42:31.884Z,3.25
2022-11-13T02:45:19.390Z,3.75
2022-11-13T02:48:08.473Z,2.00
2022-11-13T02:50:56.308Z,3.50
2022-11-13T02:53:43.749Z,2.00
2022-11-13T02:56:31.876Z,2.50
2022-11-13T02:59:19.899Z,3.50
2022-11-13T03:02:07.909Z,3.75
2022-11-13T03:05:13.086Z,2.25
2022-11-13T03:08:01.226Z,3.00
2022-11-13T03:10:49.123Z,3.00
2022-11-13T03:13:36.891Z,2.00
2022-11-13T03:16:24.731Z,3.00
2022-11-13T03:19:12.168Z,3.75
2022-11-13T03:22:00.787Z,3.25
2022-11-13T03:24:48.226Z,3.00
2022-11-13T03:27:36.530Z,2.00
2022-11-13T03:30:24.339Z,3.00
2022-11-13T03:33:12.418Z,2.00
2022-11-13T03:36:00.501Z,3.00
2022-11-13T03:38:48.936Z,3.00
2022-11-13T03:41:36.165Z,3.00
2022-11-13T03:44:24.450Z,2.00
2022-11-13T03:47:12.151Z,3.50
2022-11-13T03:50:00.006Z,3.00
2022-11-13T03:52:47.294Z,2.00
2022-11-13T03:55:35.377Z,1.75
2022-11-13T03:58:23.653Z,3.00
2022-11-13T04:01:11.813Z,4.00
2022-11-13T04:03:59.887Z,3.00
2022-11-13T04:06:47.881Z,4.00
2022-11-13T04:09:35.785Z,3.50
2022-11-13T04:12:23.243Z,2.50
2022-11-13T04:15:11.686Z,4.00
2022-11-13T04:17:59.258Z,2.50
2022-11-13T04:20:47.234Z,3.00
2022-11-13T04:23:35.241Z,3.00
2022-11-13T04:26:23.151Z,2.00
2022-11-13T04:29:10.725Z,1.50
2022-11-13T04:31:58.912Z,3.00
2022-11-13T04:34:46.530Z,3.25
2022-11-13T04:37:33.933Z,1.50
2022-11-13T04:40:21.891Z,3.00
2022-11-13T04:43:09.844Z,2.00
2022-11-13T04:45:58.048Z,2.00
2022-11-13T04:48:46.190Z,2.50
2022-11-13T04:51:34.067Z,3.50
2022-11-13T04:54:25.774Z,3.00
2022-11-13T04:57:15.890Z,3.50
2022-11-13T05:00:03.519Z,3.00
2022-11-13T05:02:51.518Z,2.00
2022-11-13T05:05:38.964Z,3.00
2022-11-13T05:08:26.806Z,3.00
2022-11-13T05:11:15.070Z,2.50
2022-11-13T05:14:03.762Z,3.00
2022-11-13T05:16:54.013Z,2.75
2022-11-13T05:19:41.594Z,2.50
2022-11-13T05:22:29.502Z,2.25
2022-11-13T05:25:17.009Z,2.75
2022-11-13T05:28:04.286Z,3.00
2022-11-13T05:30:52.316Z,3.00
2022-11-13T05:33:40.798Z,3.00
2022-11-13T05:36:29.597Z,3.50
2022-11-13T05:39:17.417Z,3.00
2022-11-13T05:42:07.009Z,4.00
2022-11-13T05:44:55.148Z,3.00
2022-11-13T05:47:43.061Z,3.00
2022-11-13T05:50:31.101Z,3.00
2022-11-13T05:53:18.742Z,2.75
2022-11-13T05:56:08.129Z,3.00
2022-11-13T05:58:56.924Z,3.00
2022-11-13T06:01:45.123Z,4.00
2022-11-13T06:04:33.466Z,2.50
2022-11-13T06:07:21.330Z,3.00
2022-11-13T06:10:10.232Z,3.50
2022-11-13T06:12:58.291Z,3.25
2022-11-13T06:15:46.860Z,3.75
2022-11-13T06:18:34.948Z,3.00
2022-11-13T06:21:24.512Z,3.00
2022-11-13T06:24:14.186Z,2.25
2022-11-13T06:27:02.731Z,2.50
2022-11-13T06:29:50.564Z,2.75
2022-11-13T06:32:38.857Z,2.25
2022-11-13T06:35:27.029Z,3.00
2022-11-13T06:38:15.169Z,3.00
2022-11-13T06:41:03.813Z,2.25
2022-11-13T06:43:52.489Z,2.00
2022-11-13T06:46:41.744Z,2.75
2022-11-13T06:49:31.295Z,3.00
2022-11-13T06:52:19.698Z,3.00
2022-11-13T06:55:08.192Z,4.00
2022-11-13T06:57:56.521Z,3.50
2022-11-13T07:00:45.429Z,4.25
2022-11-13T07:03:33.614Z,3.25
2022-11-13T07:06:23.042Z,4.50
2022-11-13T07:09:10.897Z,2.75
2022-11-13T07:11:58.968Z,4.50
2022-11-13T07:14:47.518Z,4.00
2022-11-13T07:17:36.108Z,8.25
2022-11-13T07:20:24.416Z,4.50
2022-11-13T07:23:13.913Z,3.50
2022-11-13T07:26:02.217Z,4.25
2022-11-13T07:28:50.450Z,4.00
2022-11-13T07:31:38.189Z,3.75
2022-11-13T07:34:26.119Z,3.75
2022-11-13T07:37:13.851Z,3.00
2022-11-13T07:40:01.692Z,7.75
2022-11-13T07:42:50.711Z,4.00
2022-11-13T07:45:38.891Z,3.00
2022-11-13T07:48:27.350Z,3.50
2022-11-13T07:51:15.873Z,3.00
2022-11-13T07:54:03.792Z,4.00
2022-11-13T07:56:52.528Z,6.00
2022-11-13T07:59:40.744Z,3.00
2022-11-13T08:02:29.271Z,3.00
2022-11-13T08:05:17.529Z,3.00
2022-11-13T08:08:05.987Z,4.00
2022-11-13T08:10:55.475Z,3.00
2022-11-13T08:13:44.622Z,4.00
2022-11-13T08:16:32.593Z,5.00
2022-11-13T08:19:20.482Z,4.00
2022-11-13T08:22:08.781Z,3.75
2022-11-13T08:24:56.448Z,4.00
2022-11-13T08:27:44.730Z,5.00
2022-11-13T08:30:32.928Z,3.25
2022-11-13T08:33:21.182Z,3.00
2022-11-13T08:36:09.578Z,6.25
2022-11-13T08:38:58.859Z,3.75
2022-11-13T08:41:47.349Z,5.00
2022-11-13T08:44:35.969Z,4.50
2022-11-13T08:47:29.173Z,4.00
2022-11-13T08:50:17.343Z,3.00
2022-11-13T08:53:04.775Z,7.00
2022-11-13T08:55:52.389Z,6.50
2022-11-13T08:58:40.196Z,5.75
2022-11-13T09:01:28.577Z,4.50
2022-11-13T09:04:16.090Z,5.00
2022-11-13T09:07:04.079Z,6.00
2022-11-13T09:09:51.865Z,3.50
2022-11-13T09:12:39.977Z,4.00
2022-11-13T09:15:27.929Z,5.25
2022-11-13T09:18:16.172Z,6.50
2022-11-13T09:21:04.632Z,4.00
2022-11-13T09:23:52.276Z,4.50
2022-11-13T09:26:40.161Z,4.75
2022-11-13T09:29:29.787Z,6.00
2022-11-13T09:32:18.668Z,5.00
2022-11-13T09:35:06.419Z,6.50
2022-11-13T09:37:54.544Z,8.00
2022-11-13T09:40:42.342Z,7.25
2022-11-13T09:43:35.842Z,8.00
2022-11-13T09:46:35.553Z,19.50
2022-11-13T09:49:31.174Z,21.00
2022-11-13T09:52:23.068Z,25.50
2022-11-13T09:55:14.240Z,22.00
2022-11-13T09:58:20.174Z,20.75
2022-11-13T10:01:13.477Z,21.50
2022-11-13T10:04:08.106Z,22.00
2022-11-13T10:07:02.550Z,22.00
2022-11-13T10:09:50.763Z,21.25
2022-11-13T10:12:38.357Z,21.50
2022-11-13T10:15:28.338Z,22.00
2022-11-13T10:18:21.466Z,23.00
2022-11-13T10:21:20.028Z,22.50
2022-11-13T10:24:15.038Z,20.50
2022-11-13T10:27:03.092Z,22.00
2022-11-13T10:29:50.745Z,20.50
2022-11-13T10:32:39.041Z,21.75
2022-11-13T10:35:46.883Z,22.00
2022-11-13T10:38:34.453Z,21.50
2022-11-13T10:41:23.152Z,23.00
2022-11-13T10:44:21.561Z,23.50
2022-11-13T10:47:42.813Z,23.00
2022-11-13T10:50:30.981Z,24.25
2022-11-13T10:53:20.016Z,25.25
2022-11-13T10:56:16.169Z,23.00
2022-11-13T10:59:06.559Z,22.75
2022-11-13T11:01:55.016Z,23.00
2022-11-13T11:04:43.026Z,23.25
2022-11-13T11:07:30.694Z,23.00
2022-11-13T11:10:37.754Z,22.50
2022-11-13T11:13:26.295Z,23.75
2022-11-13T11:16:20.116Z,23.00
2022-11-13T11:19:10.617Z,24.00
2022-11-13T11:22:11.381Z,22.00
2022-11-13T11:25:12.415Z,22.50
2022-11-13T11:28:19.376Z,22.75
2022-11-13T11:31:23.247Z,23.00
2022-11-13T11:34:17.626Z,22.75
2022-11-13T11:37:17.185Z,22.25
2022-11-13T11:40:17.708Z,22.75
2022-11-13T11:43:08.818Z,22.00
2022-11-13T11:45:56.890Z,22.00
2022-11-13T11:48:44.225Z,22.50
2022-11-13T11:51:33.358Z,21.75
2022-11-13T11:54:26.815Z,22.25
2022-11-13T11:57:39.203Z,23.00
2022-11-13T12:00:30.035Z,20.50
2022-11-13T12:03:36.217Z,21.50
2022-11-13T12:06:37.032Z,23.00
2022-11-13T12:09:32.326Z,22.25
2022-11-13T12:12:34.802Z,20.50
2022-11-13T12:15:22.373Z,21.75
2022-11-13T12:18:30.552Z,21.00
2022-11-13T12:21:28.498Z,19.25
2022-11-13T12:24:39.713Z,20.00
2022-11-13T12:27:41.025Z,19.00
2022-11-13T12:30:36.320Z,20.00
2022-11-13T12:33:42.996Z,19.75
2022-11-13T12:36:30.949Z,21.25
2022-11-13T12:39:39.347Z,19.25
2022-11-13T12:42:33.392Z,19.00
2022-11-13T12:45:37.866Z,21.00
2022-11-13T12:48:34.449Z,20.00
2022-11-13T12:51:23.326Z,20.50
2022-11-13T12:54:11.761Z,19.25
2022-11-13T12:57:25.894Z,20.00
2022-11-13T13:00:28.667Z,19.25
2022-11-13T13:03:29.098Z,18.50
2022-11-13T13:06:23.102Z,16.00
2022-11-13T13:09:20.959Z,18.50
2022-11-13T13:12:14.938Z,15.00
2022-11-13T13:15:11.375Z,16.50
2022-11-13T13:18:08.351Z,17.50
2022-11-13T13:20:59.834Z,17.00
2022-11-13T13:23:52.808Z,17.00
2022-11-13T13:26:49.713Z,17.50
2022-11-13T13:29:37.607Z,17.50
2022-11-13T13:32:28.638Z,18.50
2022-11-13T13:35:27.213Z,16.00
2022-11-13T13:38:36.911Z,15.00
2022-11-13T13:41:37.978Z,18.00
2022-11-13T13:44:29.005Z,13.75
2022-11-13T13:47:25.528Z,14.75
2022-11-13T13:50:17.454Z,17.25
2022-11-13T13:53:06.201Z,14.00
2022-11-13T13:55:55.333Z,13.75
2022-11-13T13:58:43.731Z,15.75
2022-11-13T14:01:36.459Z,13.25
2022-11-13T14:04:25.974Z,13.50
2022-11-13T14:07:26.183Z,12.75
2022-11-13T14:10:14.594Z,14.00
2022-11-13T14:13:02.329Z,14.75
2022-11-13T14:15:50.442Z,13.00
2022-11-13T14:18:38.985Z,13.25
2022-11-13T14:21:27.082Z,13.50
2022-11-13T14:24:50.665Z,12.00
2022-11-13T14:27:39.628Z,12.75
2022-11-13T14:30:29.187Z,13.50
2022-11-13T14:33:25.148Z,10.25
2022-11-13T14:36:14.551Z,10.50
2022-11-13T14:39:03.364Z,13.00
2022-11-13T14:42:02.066Z,11.75
2022-11-13T14:44:50.455Z,13.00
2022-11-13T14:47:39.037Z,11.75
2022-11-13T14:50:29.775Z,11.50
2022-11-13T14:53:27.847Z,12.00
2022-11-13T14:56:16.933Z,11.25
2022-11-13T14:59:15.557Z,14.50
2022-11-13T15:02:06.381Z,10.50
2022-11-13T15:04:54.539Z,12.00
2022-11-13T15:07:44.171Z,11.00
2022-11-13T15:10:33.621Z,11.50
2022-11-13T15:13:22.301Z,11.00
2022-11-13T15:16:15.795Z,10.00
2022-11-13T15:19:06.784Z,12.25
2022-11-13T15:22:25.300Z,11.00
2022-11-13T15:25:05.140Z,11.75
2022-11-13T15:27:53.761Z,12.50
2022-11-13T15:30:42.087Z,10.00
2022-11-13T15:33:31.043Z,8.50
2022-11-13T15:36:20.478Z,11.00
2022-11-13T15:39:13.162Z,10.00
2022-11-13T15:42:09.099Z,9.50
2022-11-13T15:44:57.729Z,10.50
2022-11-13T15:47:45.759Z,10.25
2022-11-13T15:50:34.452Z,10.25
2022-11-13T15:53:22.722Z,9.50
2022-11-13T15:56:11.294Z,8.75
2022-11-13T15:58:59.365Z,9.75
2022-11-13T16:01:51.767Z,10.25
2022-11-13T16:04:55.559Z,8.00
2022-11-13T16:07:44.858Z,8.50
2022-11-13T16:10:33.253Z,9.75
2022-11-13T16:13:22.636Z,9.50
2022-11-13T16:16:23.585Z,10.25
2022-11-13T16:19:14.982Z,8.50
2022-11-13T16:22:04.538Z,9.25
2022-11-13T16:24:53.263Z,8.50
2022-11-13T16:27:41.799Z,10.00
2022-11-13T16:30:33.189Z,10.00
2022-11-13T16:33:21.576Z,10.50
2022-11-13T16:36:35.481Z,9.25
2022-11-13T16:39:23.353Z,8.75
2022-11-13T16:42:11.706Z,9.00
2022-11-13T16:44:59.552Z,10.50
2022-11-13T16:47:48.926Z,8.00
2022-11-13T16:50:38.460Z,8.75
2022-11-13T16:53:26.815Z,8.25
2022-11-13T16:56:19.290Z,9.50
2022-11-13T16:59:07.502Z,11.75
2022-11-13T17:01:58.441Z,9.75
2022-11-13T17:04:46.877Z,8.50
2022-11-13T17:07:34.982Z,9.00
2022-11-13T17:10:32.287Z,8.00
2022-11-13T17:13:21.191Z,8.50
2022-11-13T17:16:09.837Z,8.00
2022-11-13T17:18:57.646Z,8.75
2022-11-13T17:21:45.599Z,8.25
2022-11-13T17:24:33.597Z,10.25
2022-11-13T17:27:22.043Z,10.00
2022-11-13T17:30:10.325Z,7.50
2022-11-13T17:32:58.321Z,8.50
2022-11-13T17:35:47.977Z,7.00
2022-11-13T17:38:36.326Z,11.25
2022-11-13T17:41:24.205Z,8.75
2022-11-13T17:44:12.167Z,7.25
2022-11-13T17:47:01.027Z,8.75
2022-11-13T17:49:49.383Z,7.25
2022-11-13T17:52:37.727Z,8.00
2022-11-13T17:55:28.534Z,8.00
2022-11-13T17:58:16.637Z,8.25
2022-11-13T18:01:06.674Z,8.00
2022-11-13T18:03:58.176Z,8.75
2022-11-13T18:06:46.172Z,7.75
2022-11-13T18:09:36.721Z,7.75
2022-11-13T18:12:25.008Z,8.00
2022-11-13T18:15:13.605Z,7.75
2022-11-13T18:18:01.468Z,7.25
2022-11-13T18:20:50.023Z,7.50
2022-11-13T18:23:38.759Z,7.75
2022-11-13T18:26:27.578Z,7.75
2022-11-13T18:29:15.051Z,8.50
2022-11-13T18:32:02.792Z,9.25
2022-11-13T18:34:50.373Z,8.25
2022-11-13T18:37:37.972Z,6.25
2022-11-13T18:40:25.694Z,7.00
2022-11-13T18:43:13.352Z,8.00
2022-11-13T18:46:03.137Z,8.00
2022-11-13T18:48:51.251Z,8.00
2022-11-13T18:51:39.791Z,6.50
2022-11-13T18:54:29.347Z,7.25
2022-11-13T18:57:17.780Z,6.00
2022-11-13T19:00:06.825Z,8.75
2022-11-13T19:02:54.481Z,9.00
2022-11-13T19:05:46.524Z,7.00
2022-11-13T19:08:39.510Z,5.25
2022-11-13T19:11:29.268Z,7.00
2022-11-13T19:14:18.303Z,7.00
2022-11-13T19:17:06.191Z,7.25
2022-11-13T19:19:54.060Z,6.75
2022-11-13T19:22:42.039Z,6.75
2022-11-13T19:25:29.722Z,6.25
2022-11-13T19:28:18.750Z,6.00
2022-11-13T19:31:09.927Z,7.50
2022-11-13T19:33:59.166Z,8.25
2022-11-13T19:36:47.745Z,8.00
2022-11-13T19:39:36.760Z,6.50
2022-11-13T19:42:24.234Z,7.00
2022-11-13T19:45:12.264Z,6.75
2022-11-13T19:47:59.847Z,5.75
2022-11-13T19:50:48.769Z,7.25
2022-11-13T19:53:37.134Z,7.50
2022-11-13T19:56:25.552Z,5.75
2022-11-13T19:59:13.299Z,7.00
2022-11-13T20:02:00.865Z,6.75
2022-11-13T20:04:48.402Z,7.50
2022-11-13T20:07:35.752Z,6.00
2022-11-13T20:10:22.811Z,6.00
2022-11-13T20:13:10.905Z,5.50
2022-11-13T20:15:58.067Z,7.00
2022-11-13T20:18:46.094Z,7.75
2022-11-13T20:21:34.112Z,7.00
2022-11-13T20:24:21.894Z,7.00
2022-11-13T20:27:11.269Z,8.00
2022-11-13T20:29:59.193Z,7.00
2022-11-13T20:32:47.441Z,6.25
2022-11-13T20:35:35.320Z,5.50
2022-11-13T20:38:22.941Z,7.75
2022-11-13T20:41:12.392Z,6.00
2022-11-13T20:44:03.117Z,4.00
2022-11-13T20:46:50.609Z,6.00
2022-11-13T20:49:38.348Z,5.50
2022-11-13T20:52:25.748Z,7.75
2022-11-13T20:55:14.010Z,6.00
2022-11-13T20:58:02.992Z,4.25
2022-11-13T21:00:50.691Z,6.25
2022-11-13T21:03:41.845Z,6.00
2022-11-13T21:06:30.058Z,4.25
2022-11-13T21:09:17.454Z,4.75
2022-11-13T21:12:04.761Z,5.00
2022-11-13T21:14:53.272Z,4.00
2022-11-13T21:17:41.267Z,5.25
2022-11-13T21:20:29.023Z,4.75
2022-11-13T21:23:16.838Z,3.50
2022-11-13T21:26:06.798Z,5.00
2022-11-13T21:28:58.028Z,5.25
2022-11-13T21:31:45.968Z,5.00
2022-11-13T21:34:33.419Z,5.25
2022-11-13T21:37:21.313Z,4.75
2022-11-13T21:40:09.286Z,4.00
2022-11-13T21:42:57.972Z,5.00
2022-11-13T21:45:45.458Z,3.75
2022-11-13T21:48:33.526Z,4.00
2022-11-13T21:51:21.538Z,6.00
2022-11-13T21:54:10.755Z,5.50
2022-11-13T21:56:58.251Z,3.25
2022-11-13T21:59:45.603Z,4.50
2022-11-13T22:02:33.755Z,6.00
2022-11-13T22:05:21.287Z,5.00
2022-11-13T22:08:09.025Z,4.75
2022-11-13T22:10:56.399Z,5.75
2022-11-13T22:13:45.216Z,7.00
2022-11-13T22:16:33.558Z,5.75
2022-11-13T22:19:27.020Z,5.50
2022-11-13T22:22:16.217Z,6.25
2022-11-13T22:25:04.217Z,7.00
2022-11-13T22:27:51.725Z,5.00
2022-11-13T22:30:39.397Z,5.25
2022-11-13T22:33:31.439Z,4.00
2022-11-13T22:36:21.534Z,2.75
2022-11-13T22:39:09.625Z,4.25
2022-11-13T22:41:57.009Z,3.75
2022-11-13T22:44:55.442Z,4.25
2022-11-13T22:47:43.809Z,2.25
2022-11-13T22:50:31.688Z,4.25
2022-11-13T22:53:19.113Z,5.00
2022-11-13T22:56:08.359Z,3.75
2022-11-13T22:58:56.831Z,4.75
2022-11-13T23:01:44.543Z,4.00
2022-11-13T23:04:32.098Z,3.75
2022-11-13T23:07:20.419Z,3.75
2022-11-13T23:10:08.538Z,3.75
2022-11-13T23:12:56.412Z,4.00
2022-11-13T23:15:43.968Z,4.50
2022-11-13T23:18:32.676Z,3.75
2022-11-13T23:21:21.141Z,2.25
2022-11-13T23:24:10.606Z,3.50
2022-11-13T23:26:58.619Z,8.00
2022-11-13T23:29:50.100Z,6.25
2022-11-13T23:32:37.925Z,8.50
2022-11-13T23:35:25.839Z,8.50
2022-11-13T23:38:12.996Z,9.50
2022-11-13T23:41:01.303Z,9.00
2022-11-13T23:46:57.189Z,8.50
2022-11-13T23:49:44.960Z,10.50
2022-11-13T23:52:32.334Z,10.25
2022-11-13T23:55:20.581Z,10.50
2022-11-13T23:58:08.907Z,10.75
